DAL4522 MUHA-TXKF
Flight info
| Callsign | DAL4522 |
|---|---|
| Flight time | 2h 32m |
| Altitude | 35000 |
| Route | KAVUL6A KAVUL DCT UVA DCT TANIA DCT ZQA DCT GRATX DCT BOREX DCT BALTN POPOP1 |
| Aircraft | B738/M-SDE2E3FGHIRWXY/LB1 |
Departure
| Time | 2026-04-26 09:43 |
|---|---|
| Airport | José Martí International Airport (MUHA) |
Arrival
| Time | 2026-04-26 12:15 |
|---|---|
| Airport | L.F. Wade International Airport (TXKF) |
| Time | Latitude | Longitude | Altitude | Speed | Heading |
|---|---|---|---|---|---|
| 2026-04-26 09:28 | 22.99611 | -82.40663 | 218 ft | 0 kts | 349° |
| 2026-04-26 09:34 | 22.99602 | -82.40661 | 218 ft | 4 kts | 348° |
| 2026-04-26 09:35 | 22.99576 | -82.40654 | 218 ft | 4 kts | 342° |
| 2026-04-26 09:35 | 22.99550 | -82.40643 | 221 ft | 4 kts | 333° |
| 2026-04-26 09:35 | 22.99529 | -82.40629 | 221 ft | 2 kts | 320° |
| 2026-04-26 09:35 | 22.99525 | -82.40625 | 222 ft | 0 kts | 320° |
| 2026-04-26 09:37 | 22.99526 | -82.40630 | 221 ft | 2 kts | 284° |
| 2026-04-26 09:37 | 22.99514 | -82.40643 | 220 ft | 7 kts | 219° |
| 2026-04-26 09:37 | 22.99459 | -82.40714 | 220 ft | 16 kts | 234° |
| 2026-04-26 09:38 | 22.99387 | -82.40824 | 222 ft | 19 kts | 223° |
| 2026-04-26 09:38 | 22.99272 | -82.40791 | 218 ft | 18 kts | 146° |
| 2026-04-26 09:38 | 22.99172 | -82.40843 | 219 ft | 18 kts | 234° |
| 2026-04-26 09:38 | 22.99098 | -82.40955 | 219 ft | 19 kts | 234° |
| 2026-04-26 09:39 | 22.99011 | -82.41087 | 223 ft | 24 kts | 234° |
| 2026-04-26 09:39 | 22.98906 | -82.41245 | 219 ft | 27 kts | 234° |
| 2026-04-26 09:39 | 22.98800 | -82.41403 | 218 ft | 25 kts | 234° |
| 2026-04-26 09:39 | 22.98700 | -82.41554 | 220 ft | 24 kts | 234° |
| 2026-04-26 09:40 | 22.98607 | -82.41695 | 221 ft | 23 kts | 234° |
| 2026-04-26 09:40 | 22.98516 | -82.41833 | 218 ft | 22 kts | 234° |
| 2026-04-26 09:40 | 22.98428 | -82.41966 | 220 ft | 21 kts | 233° |
| 2026-04-26 09:40 | 22.98342 | -82.42095 | 222 ft | 21 kts | 234° |
| 2026-04-26 09:41 | 22.98259 | -82.42220 | 221 ft | 20 kts | 233° |
| 2026-04-26 09:41 | 22.98175 | -82.42345 | 218 ft | 21 kts | 234° |
| 2026-04-26 09:41 | 22.98085 | -82.42481 | 220 ft | 23 kts | 234° |
| 2026-04-26 09:41 | 22.97957 | -82.42548 | 218 ft | 23 kts | 151° |
| 2026-04-26 09:42 | 22.97904 | -82.42434 | 222 ft | 14 kts | 56° |
| 2026-04-26 09:42 | 22.98060 | -82.42199 | 219 ft | 75 kts | 54° |
| 2026-04-26 09:42 | 22.98515 | -82.41513 | 221 ft | 146 kts | 54° |
| 2026-04-26 09:42 | 22.99218 | -82.40456 | 414 ft | 191 kts | 54° |
| 2026-04-26 09:43 | 23.00052 | -82.39208 | 927 ft | 218 kts | 54° |
| 2026-04-26 09:43 | 23.00989 | -82.37830 | 1456 ft | 235 kts | 54° |
| 2026-04-26 09:43 | 23.01920 | -82.36358 | 2280 ft | 239 kts | 64° |
| 2026-04-26 09:43 | 23.02382 | -82.34587 | 2819 ft | 250 kts | 81° |
| 2026-04-26 09:44 | 23.02633 | -82.32696 | 3532 ft | 256 kts | 82° |
| 2026-04-26 09:44 | 23.02878 | -82.30760 | 4267 ft | 261 kts | 82° |
| 2026-04-26 09:44 | 23.03134 | -82.28790 | 5017 ft | 266 kts | 81° |
| 2026-04-26 09:44 | 23.03402 | -82.26794 | 5770 ft | 269 kts | 81° |
| 2026-04-26 09:45 | 23.03682 | -82.24771 | 6494 ft | 273 kts | 80° |
| 2026-04-26 09:45 | 23.03969 | -82.22727 | 7192 ft | 276 kts | 79° |
| 2026-04-26 09:45 | 23.04262 | -82.20657 | 7891 ft | 279 kts | 79° |
| 2026-04-26 09:45 | 23.04562 | -82.18560 | 8581 ft | 283 kts | 78° |
| 2026-04-26 09:46 | 23.04866 | -82.16438 | 9305 ft | 286 kts | 78° |
| 2026-04-26 09:46 | 23.05174 | -82.14289 | 10006 ft | 289 kts | 77° |
| 2026-04-26 09:46 | 23.05485 | -82.12117 | 10664 ft | 292 kts | 77° |
| 2026-04-26 09:46 | 23.05668 | -82.09901 | 11289 ft | 300 kts | 86° |
| 2026-04-26 09:47 | 23.05611 | -82.07554 | 11492 ft | 323 kts | 90° |
| 2026-04-26 09:47 | 23.05468 | -82.05045 | 11670 ft | 344 kts | 91° |
| 2026-04-26 09:47 | 23.05303 | -82.02409 | 11834 ft | 363 kts | 91° |
| 2026-04-26 09:47 | 23.05136 | -81.99624 | 12167 ft | 375 kts | 91° |
| 2026-04-26 09:48 | 23.04976 | -81.96773 | 12734 ft | 380 kts | 90° |
| 2026-04-26 09:48 | 23.04825 | -81.93902 | 13388 ft | 382 kts | 90° |
| 2026-04-26 09:48 | 23.04681 | -81.91013 | 13992 ft | 384 kts | 90° |
| 2026-04-26 09:48 | 23.04541 | -81.88100 | 14506 ft | 389 kts | 90° |
| 2026-04-26 09:49 | 23.04403 | -81.85148 | 15002 ft | 393 kts | 90° |
| 2026-04-26 09:49 | 23.04264 | -81.82172 | 15495 ft | 398 kts | 90° |
| 2026-04-26 09:49 | 23.04122 | -81.79155 | 16009 ft | 402 kts | 90° |
| 2026-04-26 09:49 | 23.03980 | -81.76114 | 16490 ft | 406 kts | 90° |
| 2026-04-26 09:50 | 23.03834 | -81.73041 | 16969 ft | 410 kts | 90° |
| 2026-04-26 09:50 | 23.03815 | -81.69938 | 17422 ft | 412 kts | 84° |
| 2026-04-26 09:50 | 23.03829 | -81.66811 | 17878 ft | 418 kts | 91° |
| 2026-04-26 09:50 | 23.03595 | -81.63649 | 18305 ft | 422 kts | 93° |
| 2026-04-26 09:51 | 23.03320 | -81.60461 | 18689 ft | 426 kts | 93° |
| 2026-04-26 09:51 | 23.03087 | -81.57246 | 19080 ft | 429 kts | 91° |
| 2026-04-26 09:51 | 23.02907 | -81.54004 | 19471 ft | 432 kts | 90° |
| 2026-04-26 09:51 | 23.02750 | -81.50731 | 19854 ft | 435 kts | 90° |
| 2026-04-26 09:52 | 23.02832 | -81.47490 | 20218 ft | 435 kts | 79° |
| 2026-04-26 09:52 | 23.04575 | -81.41263 | 21009 ft | 430 kts | 58° |
| 2026-04-26 09:52 | 23.06042 | -81.38434 | 21395 ft | 431 kts | 55° |
| 2026-04-26 09:53 | 23.07570 | -81.35615 | 21782 ft | 434 kts | 54° |
| 2026-04-26 09:53 | 23.09115 | -81.32790 | 22153 ft | 437 kts | 54° |
| 2026-04-26 09:53 | 23.10162 | -81.30869 | 22410 ft | 439 kts | 54° |
| 2026-04-26 09:53 | 23.11714 | -81.28003 | 22774 ft | 441 kts | 54° |
| 2026-04-26 09:54 | 23.13267 | -81.25110 | 23130 ft | 444 kts | 54° |
| 2026-04-26 09:54 | 23.14799 | -81.22236 | 23470 ft | 447 kts | 55° |
| 2026-04-26 09:54 | 23.16377 | -81.19263 | 23778 ft | 449 kts | 55° |
| 2026-04-26 09:54 | 23.17938 | -81.16314 | 24068 ft | 451 kts | 55° |
| 2026-04-26 09:55 | 23.19505 | -81.13349 | 24360 ft | 454 kts | 55° |
| 2026-04-26 09:55 | 23.21057 | -81.10409 | 24634 ft | 456 kts | 55° |
| 2026-04-26 09:55 | 23.22639 | -81.07410 | 24916 ft | 458 kts | 55° |
| 2026-04-26 09:55 | 23.24228 | -81.04400 | 25196 ft | 460 kts | 55° |
| 2026-04-26 09:56 | 23.25824 | -81.01372 | 25480 ft | 462 kts | 55° |
| 2026-04-26 09:56 | 23.27427 | -80.98331 | 25757 ft | 465 kts | 55° |
| 2026-04-26 09:56 | 23.29038 | -80.95273 | 26020 ft | 467 kts | 55° |
| 2026-04-26 09:56 | 23.30656 | -80.92201 | 26289 ft | 469 kts | 55° |
| 2026-04-26 09:57 | 23.32281 | -80.89112 | 26547 ft | 471 kts | 55° |
| 2026-04-26 09:57 | 23.33911 | -80.86013 | 26804 ft | 473 kts | 55° |
| 2026-04-26 09:57 | 23.35549 | -80.82896 | 27057 ft | 475 kts | 55° |
| 2026-04-26 09:57 | 23.37193 | -80.79766 | 27305 ft | 477 kts | 55° |
| 2026-04-26 09:58 | 23.38843 | -80.76622 | 27549 ft | 479 kts | 55° |
| 2026-04-26 09:58 | 23.40500 | -80.73464 | 27780 ft | 482 kts | 55° |
| 2026-04-26 09:58 | 23.42162 | -80.70293 | 28014 ft | 483 kts | 55° |
| 2026-04-26 09:58 | 23.43832 | -80.67105 | 28250 ft | 485 kts | 55° |
| 2026-04-26 09:59 | 23.45505 | -80.63908 | 28481 ft | 487 kts | 55° |
| 2026-04-26 09:59 | 23.47187 | -80.60694 | 28705 ft | 489 kts | 55° |
| 2026-04-26 09:59 | 23.48874 | -80.57469 | 28926 ft | 491 kts | 55° |
| 2026-04-26 09:59 | 23.50562 | -80.54237 | 29227 ft | 491 kts | 55° |
| 2026-04-26 10:00 | 23.52247 | -80.51006 | 29599 ft | 489 kts | 55° |
| 2026-04-26 10:00 | 23.53924 | -80.47791 | 29958 ft | 488 kts | 55° |
| 2026-04-26 10:00 | 23.55599 | -80.44577 | 30220 ft | 488 kts | 55° |
| 2026-04-26 10:00 | 23.57277 | -80.41359 | 30455 ft | 489 kts | 55° |
| 2026-04-26 10:01 | 23.58958 | -80.38133 | 30720 ft | 489 kts | 55° |
| 2026-04-26 10:01 | 23.60634 | -80.34913 | 30986 ft | 488 kts | 55° |
| 2026-04-26 10:01 | 23.62309 | -80.31692 | 31254 ft | 488 kts | 55° |
| 2026-04-26 10:01 | 23.63981 | -80.28475 | 31509 ft | 488 kts | 55° |
| 2026-04-26 10:02 | 23.65653 | -80.25256 | 31762 ft | 488 kts | 55° |
| 2026-04-26 10:02 | 23.67326 | -80.22034 | 32037 ft | 487 kts | 55° |
| 2026-04-26 10:02 | 23.68993 | -80.18821 | 32274 ft | 487 kts | 54° |
| 2026-04-26 10:02 | 23.70662 | -80.15602 | 32517 ft | 487 kts | 54° |
| 2026-04-26 10:03 | 23.72328 | -80.12386 | 32786 ft | 486 kts | 54° |
| 2026-04-26 10:03 | 23.73993 | -80.09171 | 32951 ft | 488 kts | 54° |
| 2026-04-26 10:03 | 23.77351 | -80.02684 | 32943 ft | 491 kts | 55° |
| 2026-04-26 10:04 | 23.80661 | -79.96268 | 32924 ft | 484 kts | 55° |
| 2026-04-26 10:04 | 23.83956 | -79.89878 | 32945 ft | 483 kts | 54° |
| 2026-04-26 10:05 | 23.87250 | -79.83491 | 32944 ft | 482 kts | 55° |
| 2026-04-26 10:05 | 23.90539 | -79.77100 | 32975 ft | 482 kts | 55° |
| 2026-04-26 10:06 | 23.92186 | -79.73897 | 33094 ft | 485 kts | 55° |
| 2026-04-26 10:06 | 23.93836 | -79.70684 | 33333 ft | 484 kts | 55° |
| 2026-04-26 10:06 | 23.95479 | -79.67482 | 33662 ft | 482 kts | 55° |
| 2026-04-26 10:06 | 23.97115 | -79.64290 | 33945 ft | 481 kts | 54° |
| 2026-04-26 10:07 | 23.98749 | -79.61103 | 34127 ft | 481 kts | 55° |
| 2026-04-26 10:07 | 24.00383 | -79.57914 | 34320 ft | 481 kts | 55° |
| 2026-04-26 10:07 | 24.02018 | -79.54724 | 34534 ft | 480 kts | 55° |
| 2026-04-26 10:07 | 24.03641 | -79.51539 | 34739 ft | 480 kts | 55° |
| 2026-04-26 10:08 | 24.05237 | -79.48328 | 34919 ft | 480 kts | 56° |
| 2026-04-26 10:08 | 24.06816 | -79.45095 | 34931 ft | 484 kts | 56° |
| 2026-04-26 10:08 | 24.09982 | -79.38558 | 34949 ft | 487 kts | 57° |
| 2026-04-26 10:09 | 24.13153 | -79.32012 | 34945 ft | 487 kts | 57° |
| 2026-04-26 10:09 | 24.16332 | -79.25467 | 34944 ft | 487 kts | 57° |
| 2026-04-26 10:10 | 24.19510 | -79.18927 | 34944 ft | 486 kts | 57° |
| 2026-04-26 10:10 | 24.22685 | -79.12387 | 34941 ft | 486 kts | 57° |
| 2026-04-26 10:11 | 24.25855 | -79.05845 | 34945 ft | 486 kts | 58° |
| 2026-04-26 10:11 | 24.29018 | -78.99309 | 34948 ft | 485 kts | 58° |
| 2026-04-26 10:12 | 24.32157 | -78.92813 | 34949 ft | 485 kts | 58° |
| 2026-04-26 10:12 | 24.35311 | -78.86278 | 34944 ft | 485 kts | 58° |
| 2026-04-26 10:13 | 24.38463 | -78.79737 | 34956 ft | 485 kts | 58° |
| 2026-04-26 10:13 | 24.41610 | -78.73196 | 34950 ft | 485 kts | 59° |
| 2026-04-26 10:14 | 24.44753 | -78.66657 | 34956 ft | 484 kts | 59° |
| 2026-04-26 10:14 | 24.47890 | -78.60120 | 34946 ft | 484 kts | 59° |
| 2026-04-26 10:15 | 24.51025 | -78.53577 | 34953 ft | 484 kts | 59° |
| 2026-04-26 10:15 | 24.54159 | -78.47029 | 34958 ft | 484 kts | 59° |
| 2026-04-26 10:16 | 24.57284 | -78.40489 | 34958 ft | 484 kts | 59° |
| 2026-04-26 10:16 | 24.60408 | -78.33942 | 34953 ft | 484 kts | 59° |
| 2026-04-26 10:17 | 24.63527 | -78.27398 | 34956 ft | 483 kts | 59° |
| 2026-04-26 10:17 | 24.66643 | -78.20849 | 34955 ft | 483 kts | 59° |
| 2026-04-26 10:18 | 24.69753 | -78.14304 | 34959 ft | 483 kts | 59° |
| 2026-04-26 10:18 | 24.72862 | -78.07752 | 34963 ft | 483 kts | 59° |
| 2026-04-26 10:19 | 24.75965 | -78.01205 | 34968 ft | 482 kts | 59° |
| 2026-04-26 10:19 | 24.79061 | -77.94661 | 34970 ft | 482 kts | 60° |
| 2026-04-26 10:20 | 24.81634 | -77.89217 | 34968 ft | 482 kts | 60° |
| 2026-04-26 10:20 | 24.85242 | -77.81570 | 34964 ft | 481 kts | 60° |
| 2026-04-26 10:21 | 24.88324 | -77.75028 | 34970 ft | 481 kts | 60° |
| 2026-04-26 10:21 | 24.91397 | -77.68496 | 34970 ft | 480 kts | 60° |
| 2026-04-26 10:22 | 24.94465 | -77.61966 | 34985 ft | 480 kts | 60° |
| 2026-04-26 10:22 | 24.97526 | -77.55439 | 34987 ft | 479 kts | 60° |
| 2026-04-26 10:23 | 25.00587 | -77.48906 | 34991 ft | 479 kts | 60° |
| 2026-04-26 10:23 | 25.03772 | -77.42467 | 34986 ft | 477 kts | 54° |
| 2026-04-26 10:24 | 25.07480 | -77.36418 | 34993 ft | 476 kts | 52° |
| 2026-04-26 10:24 | 25.11282 | -77.30433 | 34979 ft | 476 kts | 52° |
| 2026-04-26 10:25 | 25.15048 | -77.24417 | 34977 ft | 477 kts | 52° |
| 2026-04-26 10:25 | 25.18784 | -77.18366 | 34965 ft | 477 kts | 52° |
| 2026-04-26 10:26 | 25.22485 | -77.12335 | 34959 ft | 477 kts | 52° |
| 2026-04-26 10:26 | 25.26209 | -77.06259 | 34955 ft | 478 kts | 52° |
| 2026-04-26 10:27 | 25.29932 | -77.00181 | 34961 ft | 478 kts | 52° |
| 2026-04-26 10:27 | 25.33657 | -76.94094 | 34958 ft | 478 kts | 52° |
| 2026-04-26 10:28 | 25.37380 | -76.88001 | 34961 ft | 478 kts | 52° |
| 2026-04-26 10:28 | 25.41105 | -76.81899 | 34955 ft | 479 kts | 52° |
| 2026-04-26 10:29 | 25.44827 | -76.75792 | 34962 ft | 479 kts | 52° |
| 2026-04-26 10:29 | 25.48547 | -76.69682 | 34957 ft | 479 kts | 53° |
| 2026-04-26 10:30 | 25.52266 | -76.63565 | 34962 ft | 479 kts | 53° |
| 2026-04-26 10:30 | 25.55982 | -76.57444 | 34963 ft | 479 kts | 53° |
| 2026-04-26 10:31 | 25.59694 | -76.51324 | 34959 ft | 479 kts | 53° |
| 2026-04-26 10:31 | 25.63400 | -76.45204 | 34961 ft | 478 kts | 53° |
| 2026-04-26 10:32 | 25.67104 | -76.39078 | 34968 ft | 478 kts | 53° |
| 2026-04-26 10:32 | 25.70804 | -76.32953 | 34966 ft | 478 kts | 53° |
| 2026-04-26 10:33 | 25.74502 | -76.26823 | 34966 ft | 478 kts | 53° |
| 2026-04-26 10:33 | 25.78192 | -76.20698 | 34959 ft | 478 kts | 53° |
| 2026-04-26 10:34 | 25.81883 | -76.14562 | 34962 ft | 478 kts | 53° |
| 2026-04-26 10:34 | 25.85570 | -76.08427 | 34960 ft | 478 kts | 53° |
| 2026-04-26 10:35 | 25.89251 | -76.02292 | 34963 ft | 477 kts | 53° |
| 2026-04-26 10:35 | 25.92931 | -75.96150 | 34962 ft | 477 kts | 53° |
| 2026-04-26 10:36 | 25.96583 | -75.90049 | 34970 ft | 477 kts | 53° |
| 2026-04-26 10:36 | 26.00254 | -75.83906 | 34964 ft | 477 kts | 53° |
| 2026-04-26 10:37 | 26.03924 | -75.77758 | 34966 ft | 477 kts | 53° |
| 2026-04-26 10:37 | 26.07615 | -75.71566 | 34959 ft | 477 kts | 53° |
| 2026-04-26 10:38 | 26.11256 | -75.65449 | 34966 ft | 477 kts | 53° |
| 2026-04-26 10:38 | 26.14321 | -75.60294 | 34962 ft | 477 kts | 53° |
| 2026-04-26 10:39 | 26.18569 | -75.53139 | 34965 ft | 477 kts | 53° |
| 2026-04-26 10:39 | 26.21631 | -75.47975 | 34962 ft | 477 kts | 54° |
| 2026-04-26 10:40 | 26.25281 | -75.41812 | 34963 ft | 477 kts | 54° |
| 2026-04-26 10:40 | 26.28905 | -75.35685 | 34963 ft | 477 kts | 54° |
| 2026-04-26 10:41 | 26.32549 | -75.29514 | 34963 ft | 476 kts | 54° |
| 2026-04-26 10:41 | 26.36189 | -75.23343 | 34963 ft | 477 kts | 54° |
| 2026-04-26 10:42 | 26.39828 | -75.17165 | 34966 ft | 477 kts | 54° |
| 2026-04-26 10:42 | 26.43465 | -75.10981 | 34968 ft | 477 kts | 54° |
| 2026-04-26 10:43 | 26.47101 | -75.04791 | 34969 ft | 477 kts | 54° |
| 2026-04-26 10:43 | 26.50739 | -74.98590 | 34969 ft | 477 kts | 54° |
| 2026-04-26 10:44 | 26.54374 | -74.92384 | 34970 ft | 478 kts | 54° |
| 2026-04-26 10:44 | 26.58011 | -74.86168 | 34970 ft | 478 kts | 54° |
| 2026-04-26 10:45 | 26.61648 | -74.79942 | 34973 ft | 478 kts | 54° |
| 2026-04-26 10:45 | 26.65282 | -74.73713 | 34971 ft | 479 kts | 54° |
| 2026-04-26 10:46 | 26.68920 | -74.67469 | 34969 ft | 479 kts | 54° |
| 2026-04-26 10:46 | 26.72553 | -74.61224 | 34973 ft | 479 kts | 54° |
| 2026-04-26 10:47 | 26.76183 | -74.54974 | 34974 ft | 479 kts | 54° |
| 2026-04-26 10:47 | 26.79792 | -74.48753 | 34972 ft | 479 kts | 54° |
| 2026-04-26 10:48 | 26.83419 | -74.42493 | 34975 ft | 479 kts | 54° |
| 2026-04-26 10:48 | 26.87042 | -74.36228 | 34978 ft | 479 kts | 55° |
| 2026-04-26 10:49 | 26.90661 | -74.29965 | 34974 ft | 479 kts | 55° |
| 2026-04-26 10:49 | 26.94342 | -74.23749 | 34975 ft | 478 kts | 53° |
| 2026-04-26 10:50 | 26.97483 | -74.18594 | 34981 ft | 478 kts | 53° |
| 2026-04-26 10:50 | 27.01836 | -74.11442 | 34976 ft | 477 kts | 53° |
| 2026-04-26 10:51 | 27.07419 | -74.02200 | 34974 ft | 477 kts | 54° |
| 2026-04-26 10:52 | 27.11130 | -73.96033 | 34973 ft | 477 kts | 54° |
| 2026-04-26 10:52 | 27.14834 | -73.89867 | 34874 ft | 473 kts | 52° |
| 2026-04-26 10:53 | 27.18449 | -73.83835 | 34954 ft | 461 kts | 52° |
| 2026-04-26 10:53 | 27.22025 | -73.77870 | 34972 ft | 460 kts | 52° |
| 2026-04-26 10:54 | 27.27381 | -73.68927 | 34992 ft | 460 kts | 52° |
| 2026-04-26 10:54 | 27.30955 | -73.62946 | 34989 ft | 461 kts | 52° |
| 2026-04-26 10:55 | 27.34532 | -73.56950 | 34991 ft | 462 kts | 52° |
| 2026-04-26 10:55 | 27.38118 | -73.50930 | 34994 ft | 464 kts | 52° |
| 2026-04-26 10:56 | 27.41714 | -73.44887 | 34987 ft | 464 kts | 52° |
| 2026-04-26 10:56 | 27.45283 | -73.38879 | 34990 ft | 465 kts | 52° |
| 2026-04-26 10:57 | 27.48901 | -73.32780 | 34993 ft | 466 kts | 52° |
| 2026-04-26 10:57 | 27.52476 | -73.26746 | 34991 ft | 466 kts | 52° |
| 2026-04-26 10:58 | 27.56095 | -73.20628 | 34992 ft | 466 kts | 52° |
| 2026-04-26 10:58 | 27.59666 | -73.14584 | 34997 ft | 466 kts | 52° |
| 2026-04-26 10:59 | 27.63253 | -73.08504 | 34997 ft | 466 kts | 53° |
| 2026-04-26 10:59 | 27.66838 | -73.02419 | 34995 ft | 465 kts | 53° |
| 2026-04-26 11:00 | 27.70417 | -72.96336 | 34997 ft | 465 kts | 53° |
| 2026-04-26 11:00 | 27.73992 | -72.90252 | 34995 ft | 465 kts | 53° |
| 2026-04-26 11:01 | 27.77563 | -72.84166 | 34997 ft | 465 kts | 53° |
| 2026-04-26 11:01 | 27.81131 | -72.78077 | 35000 ft | 465 kts | 53° |
| 2026-04-26 11:02 | 27.84699 | -72.71978 | 34998 ft | 465 kts | 53° |
| 2026-04-26 11:02 | 27.88265 | -72.65874 | 35007 ft | 465 kts | 53° |
| 2026-04-26 11:03 | 27.91832 | -72.59761 | 35014 ft | 466 kts | 53° |
| 2026-04-26 11:03 | 27.95399 | -72.53639 | 35017 ft | 467 kts | 53° |
| 2026-04-26 11:04 | 27.98972 | -72.47497 | 35010 ft | 468 kts | 53° |
| 2026-04-26 11:04 | 28.02550 | -72.41338 | 35010 ft | 468 kts | 53° |
| 2026-04-26 11:05 | 28.06126 | -72.35174 | 35010 ft | 469 kts | 53° |
| 2026-04-26 11:05 | 28.09701 | -72.29002 | 35009 ft | 469 kts | 53° |
| 2026-04-26 11:06 | 28.12675 | -72.23860 | 35014 ft | 469 kts | 54° |
| 2026-04-26 11:06 | 28.16855 | -72.16624 | 35016 ft | 469 kts | 54° |
| 2026-04-26 11:07 | 28.20430 | -72.10427 | 35014 ft | 469 kts | 54° |
| 2026-04-26 11:07 | 28.23995 | -72.04235 | 35015 ft | 469 kts | 54° |
| 2026-04-26 11:08 | 28.27561 | -71.98036 | 35014 ft | 469 kts | 54° |
| 2026-04-26 11:08 | 28.31121 | -71.91836 | 35019 ft | 469 kts | 54° |
| 2026-04-26 11:09 | 28.34675 | -71.85639 | 35016 ft | 468 kts | 54° |
| 2026-04-26 11:09 | 28.38227 | -71.79434 | 35018 ft | 468 kts | 54° |
| 2026-04-26 11:10 | 28.41771 | -71.73235 | 35020 ft | 468 kts | 54° |
| 2026-04-26 11:10 | 28.45311 | -71.67035 | 35024 ft | 468 kts | 54° |
| 2026-04-26 11:11 | 28.48845 | -71.60836 | 35021 ft | 467 kts | 54° |
| 2026-04-26 11:11 | 28.52378 | -71.54631 | 35027 ft | 467 kts | 54° |
| 2026-04-26 11:12 | 28.55905 | -71.48425 | 35032 ft | 467 kts | 54° |
| 2026-04-26 11:12 | 28.59431 | -71.42212 | 35032 ft | 467 kts | 55° |
| 2026-04-26 11:13 | 28.62950 | -71.36003 | 35032 ft | 467 kts | 55° |
| 2026-04-26 11:13 | 28.66446 | -71.29825 | 35033 ft | 467 kts | 55° |
| 2026-04-26 11:14 | 28.69957 | -71.23612 | 35039 ft | 467 kts | 55° |
| 2026-04-26 11:14 | 28.72897 | -71.18400 | 35031 ft | 467 kts | 55° |
| 2026-04-26 11:15 | 28.76973 | -71.11166 | 35034 ft | 467 kts | 55° |
| 2026-04-26 11:15 | 28.80479 | -71.04932 | 35041 ft | 466 kts | 55° |
| 2026-04-26 11:16 | 28.83978 | -70.98704 | 35037 ft | 466 kts | 56° |
| 2026-04-26 11:16 | 28.87486 | -70.92484 | 35042 ft | 466 kts | 55° |
| 2026-04-26 11:17 | 28.91025 | -70.86275 | 35039 ft | 466 kts | 55° |
| 2026-04-26 11:17 | 28.94555 | -70.80076 | 35041 ft | 466 kts | 55° |
| 2026-04-26 11:18 | 28.98083 | -70.73862 | 35042 ft | 466 kts | 55° |
| 2026-04-26 11:18 | 29.01578 | -70.67690 | 35048 ft | 466 kts | 56° |
| 2026-04-26 11:19 | 29.05096 | -70.61466 | 35044 ft | 466 kts | 56° |
| 2026-04-26 11:19 | 29.08610 | -70.55241 | 35046 ft | 466 kts | 56° |
| 2026-04-26 11:20 | 29.11552 | -70.50023 | 35046 ft | 466 kts | 56° |
| 2026-04-26 11:20 | 29.15628 | -70.42783 | 35048 ft | 466 kts | 56° |
| 2026-04-26 11:21 | 29.19132 | -70.36547 | 35049 ft | 466 kts | 56° |
| 2026-04-26 11:21 | 29.22633 | -70.30308 | 35048 ft | 466 kts | 56° |
| 2026-04-26 11:22 | 29.26131 | -70.24066 | 35052 ft | 466 kts | 56° |
| 2026-04-26 11:22 | 29.29626 | -70.17818 | 35052 ft | 466 kts | 56° |
| 2026-04-26 11:23 | 29.33119 | -70.11565 | 35054 ft | 466 kts | 56° |
| 2026-04-26 11:23 | 29.36606 | -70.05315 | 35057 ft | 466 kts | 56° |
| 2026-04-26 11:24 | 29.40091 | -69.99057 | 35053 ft | 466 kts | 56° |
| 2026-04-26 11:24 | 29.43571 | -69.92797 | 35052 ft | 466 kts | 56° |
| 2026-04-26 11:25 | 29.47051 | -69.86530 | 35057 ft | 466 kts | 56° |
| 2026-04-26 11:25 | 29.50527 | -69.80261 | 35054 ft | 466 kts | 56° |
| 2026-04-26 11:26 | 29.53417 | -69.75039 | 35058 ft | 466 kts | 56° |
| 2026-04-26 11:26 | 29.57451 | -69.67741 | 35057 ft | 466 kts | 56° |
| 2026-04-26 11:27 | 29.60359 | -69.62471 | 35052 ft | 466 kts | 56° |
| 2026-04-26 11:27 | 29.63826 | -69.56181 | 35054 ft | 466 kts | 56° |
| 2026-04-26 11:28 | 29.67290 | -69.49885 | 35054 ft | 466 kts | 56° |
| 2026-04-26 11:28 | 29.70754 | -69.43581 | 35061 ft | 466 kts | 57° |
| 2026-04-26 11:29 | 29.74218 | -69.37267 | 35060 ft | 466 kts | 57° |
| 2026-04-26 11:29 | 29.77678 | -69.30949 | 35063 ft | 467 kts | 57° |
| 2026-04-26 11:30 | 29.81113 | -69.24667 | 35068 ft | 467 kts | 57° |
| 2026-04-26 11:30 | 29.84570 | -69.18336 | 35063 ft | 467 kts | 57° |
| 2026-04-26 11:31 | 29.88046 | -69.11959 | 35063 ft | 467 kts | 57° |
| 2026-04-26 11:31 | 29.91476 | -69.05658 | 35069 ft | 467 kts | 57° |
| 2026-04-26 11:32 | 29.94924 | -68.99313 | 35067 ft | 467 kts | 57° |
| 2026-04-26 11:32 | 29.98371 | -68.92959 | 35066 ft | 467 kts | 57° |
| 2026-04-26 11:33 | 30.01813 | -68.86606 | 35070 ft | 467 kts | 57° |
| 2026-04-26 11:33 | 30.05248 | -68.80254 | 35072 ft | 467 kts | 57° |
| 2026-04-26 11:34 | 30.08682 | -68.73896 | 35075 ft | 466 kts | 57° |
| 2026-04-26 11:34 | 30.12110 | -68.67538 | 35070 ft | 466 kts | 57° |
| 2026-04-26 11:35 | 30.15533 | -68.61179 | 35075 ft | 466 kts | 57° |
| 2026-04-26 11:35 | 30.18949 | -68.54823 | 35079 ft | 465 kts | 57° |
| 2026-04-26 11:36 | 30.22358 | -68.48469 | 35075 ft | 465 kts | 57° |
| 2026-04-26 11:36 | 30.25763 | -68.42113 | 35079 ft | 464 kts | 57° |
| 2026-04-26 11:37 | 30.29161 | -68.35761 | 35079 ft | 464 kts | 58° |
| 2026-04-26 11:37 | 30.32551 | -68.29413 | 35077 ft | 463 kts | 58° |
| 2026-04-26 11:38 | 30.35935 | -68.23066 | 35080 ft | 463 kts | 58° |
| 2026-04-26 11:38 | 30.39312 | -68.16722 | 35081 ft | 463 kts | 58° |
| 2026-04-26 11:39 | 30.42685 | -68.10375 | 35082 ft | 462 kts | 58° |
| 2026-04-26 11:39 | 30.46051 | -68.04031 | 35090 ft | 462 kts | 58° |
| 2026-04-26 11:40 | 30.49412 | -67.97686 | 35088 ft | 462 kts | 58° |
| 2026-04-26 11:40 | 30.52768 | -67.91341 | 35088 ft | 462 kts | 58° |
| 2026-04-26 11:42 | 30.66139 | -67.65957 | 35095 ft | 462 kts | 58° |
| 2026-04-26 11:43 | 30.69565 | -67.59654 | 35088 ft | 461 kts | 51° |
| 2026-04-26 11:43 | 30.73715 | -67.53979 | 35092 ft | 461 kts | 48° |
| 2026-04-26 11:44 | 30.77959 | -67.48394 | 35096 ft | 461 kts | 48° |
| 2026-04-26 11:44 | 30.82181 | -67.42776 | 35095 ft | 461 kts | 48° |
| 2026-04-26 11:45 | 30.86376 | -67.37130 | 35098 ft | 461 kts | 48° |
| 2026-04-26 11:45 | 30.90568 | -67.31465 | 35098 ft | 462 kts | 48° |
| 2026-04-26 11:46 | 30.94757 | -67.25793 | 35094 ft | 462 kts | 48° |
| 2026-04-26 11:46 | 30.98949 | -67.20113 | 35095 ft | 462 kts | 48° |
| 2026-04-26 11:47 | 31.03139 | -67.14427 | 35099 ft | 462 kts | 48° |
| 2026-04-26 11:47 | 31.07327 | -67.08736 | 35097 ft | 462 kts | 48° |
| 2026-04-26 11:48 | 31.11515 | -67.03037 | 35101 ft | 463 kts | 48° |
| 2026-04-26 11:48 | 31.15699 | -66.97335 | 35103 ft | 463 kts | 48° |
| 2026-04-26 11:49 | 31.19772 | -66.91775 | 35098 ft | 463 kts | 48° |
| 2026-04-26 11:49 | 31.23951 | -66.86062 | 35096 ft | 463 kts | 48° |
| 2026-04-26 11:50 | 31.28128 | -66.80343 | 35101 ft | 462 kts | 48° |
| 2026-04-26 11:50 | 31.32292 | -66.74633 | 34463 ft | 468 kts | 49° |
| 2026-04-26 11:51 | 31.34400 | -66.71741 | 33860 ft | 467 kts | 49° |
| 2026-04-26 11:51 | 31.36502 | -66.68854 | 33179 ft | 466 kts | 49° |
| 2026-04-26 11:51 | 31.38603 | -66.65963 | 32518 ft | 466 kts | 49° |
| 2026-04-26 11:51 | 31.40706 | -66.63068 | 31849 ft | 466 kts | 49° |
| 2026-04-26 11:52 | 31.42804 | -66.60178 | 31172 ft | 466 kts | 49° |
| 2026-04-26 11:52 | 31.44220 | -66.58224 | 30709 ft | 467 kts | 49° |
| 2026-04-26 11:52 | 31.47004 | -66.54382 | 29811 ft | 466 kts | 49° |
| 2026-04-26 11:52 | 31.49085 | -66.51506 | 29249 ft | 461 kts | 49° |
| 2026-04-26 11:53 | 31.51148 | -66.48655 | 28727 ft | 455 kts | 49° |
| 2026-04-26 11:53 | 31.53180 | -66.45842 | 28192 ft | 450 kts | 49° |
| 2026-04-26 11:53 | 31.55195 | -66.43053 | 27689 ft | 445 kts | 49° |
| 2026-04-26 11:54 | 31.59158 | -66.37559 | 26681 ft | 437 kts | 49° |
| 2026-04-26 11:54 | 31.61115 | -66.34845 | 26187 ft | 434 kts | 49° |
| 2026-04-26 11:54 | 31.63053 | -66.32153 | 25701 ft | 430 kts | 49° |
| 2026-04-26 11:54 | 31.64978 | -66.29479 | 25218 ft | 427 kts | 49° |
| 2026-04-26 11:55 | 31.66889 | -66.26822 | 24737 ft | 425 kts | 49° |
| 2026-04-26 11:55 | 31.68789 | -66.24178 | 24230 ft | 423 kts | 49° |
| 2026-04-26 11:55 | 31.70686 | -66.21536 | 23715 ft | 423 kts | 49° |
| 2026-04-26 11:55 | 31.72583 | -66.18891 | 23109 ft | 423 kts | 49° |
| 2026-04-26 11:56 | 31.74471 | -66.16255 | 22573 ft | 421 kts | 49° |
| 2026-04-26 11:56 | 31.76351 | -66.13627 | 22041 ft | 419 kts | 49° |
| 2026-04-26 11:56 | 31.78219 | -66.11014 | 21529 ft | 416 kts | 49° |
| 2026-04-26 11:56 | 31.80070 | -66.08422 | 21025 ft | 413 kts | 49° |
| 2026-04-26 11:57 | 31.81917 | -66.05836 | 20524 ft | 411 kts | 49° |
| 2026-04-26 11:57 | 31.83753 | -66.03263 | 20017 ft | 411 kts | 48° |
| 2026-04-26 11:57 | 31.85575 | -66.00707 | 19435 ft | 404 kts | 48° |
| 2026-04-26 11:57 | 31.87375 | -65.98180 | 18628 ft | 403 kts | 48° |
| 2026-04-26 11:58 | 31.89177 | -65.95651 | 17734 ft | 402 kts | 48° |
| 2026-04-26 11:58 | 31.90962 | -65.93143 | 17076 ft | 395 kts | 49° |
| 2026-04-26 11:58 | 31.92698 | -65.90700 | 16566 ft | 384 kts | 49° |
| 2026-04-26 11:58 | 31.94390 | -65.88319 | 16105 ft | 373 kts | 49° |
| 2026-04-26 11:59 | 31.96031 | -65.86008 | 15667 ft | 364 kts | 49° |
| 2026-04-26 11:59 | 31.97640 | -65.83741 | 15220 ft | 358 kts | 49° |
| 2026-04-26 11:59 | 31.99240 | -65.81487 | 14737 ft | 361 kts | 49° |
| 2026-04-26 11:59 | 32.00871 | -65.79189 | 14296 ft | 370 kts | 50° |
| 2026-04-26 12:00 | 32.02538 | -65.76855 | 13839 ft | 373 kts | 49° |
| 2026-04-26 12:00 | 32.04247 | -65.74560 | 13338 ft | 372 kts | 48° |
| 2026-04-26 12:00 | 32.05961 | -65.72294 | 12878 ft | 368 kts | 48° |
| 2026-04-26 12:00 | 32.07662 | -65.70056 | 12433 ft | 365 kts | 48° |
| 2026-04-26 12:01 | 32.09337 | -65.67858 | 12261 ft | 354 kts | 48° |
| 2026-04-26 12:01 | 32.10959 | -65.65734 | 12109 ft | 343 kts | 48° |
| 2026-04-26 12:01 | 32.12536 | -65.63671 | 11948 ft | 334 kts | 47° |
| 2026-04-26 12:01 | 32.14079 | -65.61655 | 11656 ft | 328 kts | 47° |
| 2026-04-26 12:02 | 32.15581 | -65.59690 | 11379 ft | 316 kts | 47° |
| 2026-04-26 12:02 | 32.16507 | -65.58393 | 11188 ft | 309 kts | 55° |
| 2026-04-26 12:02 | 32.17874 | -65.55533 | 10824 ft | 295 kts | 63° |
| 2026-04-26 12:02 | 32.18772 | -65.53384 | 10581 ft | 290 kts | 64° |
| 2026-04-26 12:03 | 32.19649 | -65.51251 | 10337 ft | 288 kts | 64° |
| 2026-04-26 12:03 | 32.20525 | -65.49126 | 10094 ft | 287 kts | 64° |
| 2026-04-26 12:03 | 32.21399 | -65.47015 | 9835 ft | 286 kts | 64° |
| 2026-04-26 12:03 | 32.22275 | -65.44911 | 9559 ft | 285 kts | 63° |
| 2026-04-26 12:04 | 32.23149 | -65.42818 | 9303 ft | 283 kts | 63° |
| 2026-04-26 12:04 | 32.24020 | -65.40737 | 9049 ft | 282 kts | 63° |
| 2026-04-26 12:04 | 32.24886 | -65.38672 | 8794 ft | 280 kts | 63° |
| 2026-04-26 12:04 | 32.25748 | -65.36615 | 8549 ft | 279 kts | 63° |
| 2026-04-26 12:05 | 32.26606 | -65.34570 | 8318 ft | 277 kts | 63° |
| 2026-04-26 12:05 | 32.27461 | -65.32530 | 8071 ft | 277 kts | 62° |
| 2026-04-26 12:05 | 32.28316 | -65.30491 | 7837 ft | 277 kts | 62° |
| 2026-04-26 12:05 | 32.29171 | -65.28451 | 7591 ft | 277 kts | 62° |
| 2026-04-26 12:06 | 32.30023 | -65.26417 | 7344 ft | 275 kts | 62° |
| 2026-04-26 12:06 | 32.30869 | -65.24395 | 7098 ft | 274 kts | 62° |
| 2026-04-26 12:06 | 32.31710 | -65.22386 | 6866 ft | 272 kts | 62° |
| 2026-04-26 12:06 | 32.32546 | -65.20385 | 6623 ft | 271 kts | 62° |
| 2026-04-26 12:07 | 32.33379 | -65.18391 | 6373 ft | 270 kts | 62° |
| 2026-04-26 12:07 | 32.34209 | -65.16407 | 6119 ft | 268 kts | 62° |
| 2026-04-26 12:07 | 32.35032 | -65.14433 | 5888 ft | 267 kts | 62° |
| 2026-04-26 12:07 | 32.35844 | -65.12488 | 5638 ft | 260 kts | 62° |
| 2026-04-26 12:08 | 32.36633 | -65.10596 | 5400 ft | 252 kts | 62° |
| 2026-04-26 12:08 | 32.37397 | -65.08762 | 5179 ft | 245 kts | 62° |
| 2026-04-26 12:08 | 32.38140 | -65.06980 | 4970 ft | 238 kts | 62° |
| 2026-04-26 12:08 | 32.38865 | -65.05240 | 4700 ft | 233 kts | 62° |
| 2026-04-26 12:09 | 32.39564 | -65.03560 | 4551 ft | 224 kts | 62° |
| 2026-04-26 12:09 | 32.40237 | -65.01940 | 4386 ft | 214 kts | 63° |
| 2026-04-26 12:09 | 32.40883 | -65.00387 | 4205 ft | 206 kts | 62° |
| 2026-04-26 12:09 | 32.41480 | -64.98864 | 4013 ft | 204 kts | 72° |
| 2026-04-26 12:10 | 32.41468 | -64.97200 | 3844 ft | 203 kts | 102° |
| 2026-04-26 12:10 | 32.41170 | -64.95554 | 3673 ft | 206 kts | 101° |
| 2026-04-26 12:10 | 32.40885 | -64.93882 | 3490 ft | 207 kts | 101° |
| 2026-04-26 12:10 | 32.40609 | -64.92248 | 3279 ft | 199 kts | 101° |
| 2026-04-26 12:11 | 32.40340 | -64.90658 | 3106 ft | 197 kts | 101° |
| 2026-04-26 12:11 | 32.40073 | -64.89084 | 2940 ft | 199 kts | 101° |
| 2026-04-26 12:11 | 32.39800 | -64.87479 | 2767 ft | 199 kts | 102° |
| 2026-04-26 12:11 | 32.39527 | -64.85884 | 2587 ft | 197 kts | 102° |
| 2026-04-26 12:12 | 32.39256 | -64.84310 | 2422 ft | 192 kts | 102° |
| 2026-04-26 12:12 | 32.38996 | -64.82807 | 2241 ft | 182 kts | 102° |
| 2026-04-26 12:12 | 32.38748 | -64.81372 | 2097 ft | 175 kts | 102° |
| 2026-04-26 12:12 | 32.38667 | -64.80899 | 2051 ft | 174 kts | 102° |
| 2026-04-26 12:13 | 32.38347 | -64.79052 | 1851 ft | 172 kts | 102° |
| 2026-04-26 12:13 | 32.38113 | -64.77698 | 1633 ft | 165 kts | 101° |
| 2026-04-26 12:13 | 32.37890 | -64.76418 | 1415 ft | 155 kts | 101° |
| 2026-04-26 12:13 | 32.37679 | -64.75202 | 1183 ft | 147 kts | 102° |
| 2026-04-26 12:14 | 32.37471 | -64.74019 | 960 ft | 147 kts | 101° |
| 2026-04-26 12:14 | 32.37262 | -64.72831 | 745 ft | 146 kts | 102° |
| 2026-04-26 12:14 | 32.37050 | -64.71665 | 517 ft | 145 kts | 101° |
| 2026-04-26 12:14 | 32.36860 | -64.70491 | 281 ft | 146 kts | 103° |
| 2026-04-26 12:15 | 32.36656 | -64.69327 | 50 ft | 142 kts | 102° |
| 2026-04-26 12:15 | 32.36478 | -64.68303 | 28 ft | 99 kts | 101° |
| 2026-04-26 12:15 | 32.36408 | -64.67884 | 25 ft | 24 kts | 97° |
| 2026-04-26 12:15 | 32.36486 | -64.67815 | 27 ft | 14 kts | 13° |
| 2026-04-26 12:16 | 32.36542 | -64.67835 | 29 ft | 3 kts | 284° |
| 2026-04-26 12:16 | 32.36550 | -64.67888 | 29 ft | 14 kts | 280° |
| 2026-04-26 12:16 | 32.36576 | -64.68052 | 31 ft | 24 kts | 282° |
| 2026-04-26 12:16 | 32.36610 | -64.68246 | 26 ft | 23 kts | 282° |
| 2026-04-26 12:17 | 32.36642 | -64.68431 | 26 ft | 23 kts | 281° |
| 2026-04-26 12:17 | 32.36672 | -64.68610 | 26 ft | 22 kts | 281° |
| 2026-04-26 12:17 | 32.36703 | -64.68783 | 26 ft | 21 kts | 282° |
| 2026-04-26 12:17 | 32.36697 | -64.68951 | 27 ft | 21 kts | 247° |
| 2026-04-26 12:18 | 32.36641 | -64.69108 | 27 ft | 22 kts | 247° |
| 2026-04-26 12:18 | 32.36580 | -64.69278 | 28 ft | 23 kts | 247° |
| 2026-04-26 12:18 | 32.36520 | -64.69446 | 25 ft | 22 kts | 247° |
| 2026-04-26 12:18 | 32.36462 | -64.69610 | 26 ft | 21 kts | 247° |
| 2026-04-26 12:19 | 32.36407 | -64.69769 | 27 ft | 21 kts | 248° |
| 2026-04-26 12:19 | 32.36353 | -64.69924 | 26 ft | 20 kts | 247° |
| 2026-04-26 12:19 | 32.36261 | -64.70041 | 26 ft | 19 kts | 213° |
| 2026-04-26 12:19 | 32.36168 | -64.70122 | 26 ft | 12 kts | 240° |
| 2026-04-26 12:20 | 32.36127 | -64.70205 | 28 ft | 11 kts | 226° |
| 2026-04-26 12:20 | 32.36059 | -64.70195 | 29 ft | 9 kts | 153° |
| 2026-04-26 12:20 | 32.36048 | -64.70189 | 27 ft | 0 kts | 153° |